Time;durP1;ratioP1;P1;durP2;ratioP2;P2;SDS_P1;SDS_P2;PMS_P1;PMS_P2;Temp;Humidity;BMP_temperature;BMP_pressure;BME280_temperature;BME280_humidity;BME280_pressure;Samples;Min_cycle;Max_cycle;Signal;HPM_P1;HPM_P2
2022/05/18 00:03:45;;;;;;;0.22;0.15;;;15.50;99.90;;;14.22;81.51;100461.31;10236047;28;96748;-87
2022/05/18 00:08:48;;;;;;;0.17;0.17;;;15.40;99.90;;;14.19;81.26;100463.34;10214562;28;96797;-88
2022/05/18 00:13:54;;;;;;;0.35;0.25;;;15.40;99.90;;;14.15;80.74;100466.56;10248946;28;96845;-87
2022/05/18 00:18:57;;;;;;;0.50;0.40;;;15.40;99.90;;;14.10;80.30;100468.97;10251205;28;96989;-87
2022/05/18 00:24:00;;;;;;;0.20;0.13;;;15.30;99.90;;;14.06;79.58;100478.38;10220631;28;96634;-87
2022/05/18 00:29:03;;;;;;;0.20;0.20;;;15.30;99.90;;;14.03;80.28;100484.06;10236483;28;96543;-87
2022/05/18 00:34:06;;;;;;;1.20;0.30;;;15.30;99.90;;;14.01;79.20;100475.41;10267856;28;96470;-87
2022/05/18 00:39:09;;;;;;;0.08;0.05;;;15.20;99.90;;;13.97;79.62;100474.94;10252833;28;98056;-87
2022/05/18 00:44:12;;;;;;;0.63;0.32;;;15.20;99.90;;;13.96;79.30;100489.31;10252474;28;96627;-87
2022/05/18 00:49:15;;;;;;;0.38;0.28;;;15.20;99.90;;;13.94;79.77;100491.34;10262127;28;97529;-87
2022/05/18 00:54:30;;;;;;;0.45;0.30;;;15.20;99.90;;;13.92;80.08;100507.56;10256988;28;97244;-88
2022/05/18 00:59:46;;;;;;;0.10;0.10;;;15.20;99.90;;;13.90;79.16;100503.41;10234434;28;98356;-87
2022/05/18 01:04:53;;;;;;;0.63;0.28;;;15.20;99.90;;;13.89;79.34;100505.25;10260186;28;97040;-87
2022/05/18 01:09:56;;;;;;;0.22;0.10;;;15.20;99.90;;;13.88;79.46;100516.13;10250367;28;97896;-87
2022/05/18 01:15:10;;;;;;;0.20;0.10;;;15.20;99.90;;;13.84;79.61;100518.31;10230789;28;98464;-87
2022/05/18 01:20:22;;;;;;;0.63;0.38;;;15.20;99.90;;;13.81;79.13;100521.34;10236665;28;96789;-87
2022/05/18 01:25:49;;;;;;;1.55;0.30;;;15.10;99.90;;;13.80;79.54;100521.53;10263873;28;97934;-88
2022/05/18 01:30:52;;;;;;;1.70;0.70;;;15.10;99.90;;;13.78;80.17;100518.19;10245050;28;96951;-87
2022/05/18 01:35:55;;;;;;;0.30;0.28;;;15.10;99.90;;;13.75;81.31;100523.91;10263149;28;96573;-87
2022/05/18 01:41:15;;;;;;;0.47;0.30;;;15.10;99.90;;;13.68;81.71;100528.31;10244205;28;96804;-87
2022/05/18 01:46:21;;;;;;;0.20;0.10;;;15.00;99.90;;;13.56;81.39;100535.94;10208156;28;96621;-88
2022/05/18 01:51:45;;;;;;;0.65;0.50;;;15.00;99.90;;;13.39;81.75;100538.72;10213136;28;98246;-88
2022/05/18 01:56:48;;;;;;;0.17;0.17;;;14.80;99.90;;;13.26;82.00;100546.50;10235562;28;96614;-87
2022/05/18 02:01:50;;;;;;;0.40;0.35;;;14.70;99.90;;;13.15;81.89;100551.38;10209439;28;96540;-88
2022/05/18 02:06:54;;;;;;;0.40;0.40;;;14.60;99.90;;;13.03;82.26;100556.25;10210556;28;96706;-87
2022/05/18 02:11:58;;;;;;;1.90;0.70;;;14.50;99.90;;;12.93;82.82;100566.31;10210254;28;96657;-87
2022/05/18 02:17:02;;;;;;;0.70;0.17;;;14.40;99.90;;;12.80;82.51;100570.38;10194848;28;96698;-87
2022/05/18 02:22:05;;;;;;;1.40;0.30;;;14.30;99.90;;;12.68;82.32;100585.09;10212441;28;96650;-87
2022/05/18 02:27:08;;;;;;;0.87;0.83;;;14.20;99.90;;;12.59;82.85;100588.75;10170835;28;96632;-87
2022/05/18 02:32:11;;;;;;;0.63;0.47;;;14.00;99.90;;;12.49;82.84;100598.81;10210007;28;96654;-87
2022/05/18 02:37:14;;;;;;;0.83;0.43;;;13.90;99.90;;;12.41;82.89;100596.97;10221146;28;96559;-88
2022/05/18 02:42:17;;;;;;;0.50;0.30;;;13.80;99.90;;;12.37;83.51;100614.31;10190335;28;97008;-88
2022/05/18 02:47:21;;;;;;;0.33;0.33;;;13.80;99.90;;;12.31;83.98;100615.00;10202664;28;96714;-88
2022/05/18 02:52:24;;;;;;;0.33;0.30;;;13.70;99.90;;;12.29;84.33;100612.50;10208555;28;96582;-87
2022/05/18 02:57:27;;;;;;;0.53;0.47;;;13.70;99.90;;;12.29;84.89;100628.50;10209004;28;96470;-87
2022/05/18 03:02:30;;;;;;;0.50;0.30;;;13.70;99.90;;;12.28;85.22;100637.47;10226212;28;96951;-87
2022/05/18 03:07:33;;;;;;;0.43;0.37;;;13.70;99.90;;;12.24;84.93;100635.34;10206933;28;96948;-87
2022/05/18 03:12:36;;;;;;;0.40;0.40;;;13.60;99.90;;;12.16;85.52;100646.81;10211567;28;96766;-87
2022/05/18 03:17:40;;;;;;;0.30;0.23;;;13.60;99.90;;;12.10;86.13;100659.97;10208565;28;96578;-87
2022/05/18 03:28:05;;;;;;;0.60;0.30;;;13.50;99.90;;;12.06;86.49;100670.13;10209393;28;96507;-87
2022/05/18 03:33:08;;;;;;;0.50;0.20;;;13.50;99.90;;;12.04;87.04;100680.09;10225967;28;97122;-86
2022/05/18 03:38:11;;;;;;;0.10;0.10;;;13.50;99.90;;;11.99;87.32;100698.41;10233706;28;96851;-87
2022/05/18 03:43:20;;;;;;;0.50;0.50;;;13.40;99.90;;;11.92;87.66;100705.41;10248411;28;96575;-87
2022/05/18 03:48:23;;;;;;;1.43;0.67;;;13.30;99.90;;;11.88;88.59;100710.22;10228826;28;96612;-87
2022/05/18 03:53:27;;;;;;;0.20;0.20;;;13.30;99.90;;;11.91;89.70;100720.53;10245643;28;96687;-87
2022/05/18 03:58:30;;;;;;;0.80;0.53;;;13.30;99.90;;;11.96;89.71;100736.03;10261781;28;97244;-88
2022/05/18 04:03:33;;;;;;;0.30;0.30;;;13.30;99.90;;;11.97;90.06;100738.53;10242832;28;96518;-88
2022/05/18 04:08:37;;;;;;;0.67;0.60;;;13.30;99.90;;;12.03;90.13;100753.03;10219166;28;96581;-88
2022/05/18 04:13:40;;;;;;;0.67;0.30;;;13.30;99.90;;;12.09;90.50;100759.53;10234521;28;96535;-88
2022/05/18 04:18:44;;;;;;;1.23;0.60;;;13.40;99.90;;;12.16;90.13;100772.03;10212737;28;96732;-87
2022/05/18 04:23:47;;;;;;;1.00;0.63;;;13.40;99.90;;;12.27;90.01;100779.72;10249915;28;97251;-88
2022/05/18 04:28:50;;;;;;;0.40;0.30;;;13.60;99.90;;;12.39;89.59;100782.88;10221607;28;97233;-88
2022/05/18 04:33:53;;;;;;;0.63;0.37;;;13.70;99.90;;;12.52;88.74;100793.06;10246194;28;97569;-87
2022/05/18 04:38:56;;;;;;;0.70;0.40;;;13.80;99.90;;;12.66;88.09;100795.06;10267743;28;96669;-87
2022/05/18 04:43:59;;;;;;;2.67;0.33;;;13.90;99.90;;;12.87;88.10;100815.88;10248933;28;96657;-88
2022/05/18 04:49:02;;;;;;;0.20;0.20;;;14.10;99.90;;;13.07;84.20;100821.69;10252483;28;96638;-88
2022/05/18 04:54:06;;;;;;;1.67;0.23;;;14.30;99.90;;;13.23;80.49;100829.72;10268002;28;96717;-88
2022/05/18 04:59:09;;;;;;;0.67;0.67;;;14.50;99.90;;;13.32;78.54;100833.22;10221545;28;96623;-89
2022/05/18 05:04:13;;;;;;;0.20;0.20;;;14.60;99.90;;;13.36;77.51;100845.19;10235216;28;96941;-89
2022/05/18 05:09:16;;;;;;;0.10;0.10;;;14.70;99.90;;;13.38;75.71;100864.56;10278079;28;98001;-88
2022/05/18 05:14:20;;;;;;;2.20;0.40;;;14.80;99.90;;;13.37;73.65;100865.53;10253517;28;96617;-88
2022/05/18 05:19:23;;;;;;;0.10;0.10;;;14.70;99.90;;;13.37;70.31;100865.53;10251199;28;96665;-88
2022/05/18 05:24:26;;;;;;;0.00;0.00;;;14.70;99.90;;;13.48;67.36;100886.56;10251332;28;96631;-87
2022/05/18 05:29:29;;;;;;;0.22;0.20;;;14.80;99.90;;;13.59;66.71;100886.19;10253391;28;96642;-86
2022/05/18 05:34:33;;;;;;;0.10;0.10;;;14.80;99.90;;;13.71;64.63;100893.84;10259213;28;98627;-85
2022/05/18 05:39:36;;;;;;;0.27;0.23;;;15.00;99.90;;;13.79;65.11;100893.81;10236448;28;96733;-86
2022/05/18 05:44:39;;;;;;;0.20;0.20;;;15.10;99.90;;;13.91;61.95;100911.16;10238520;28;96827;-87
2022/05/18 05:49:42;;;;;;;0.00;0.00;;;15.20;99.30;;;14.00;60.31;100918.13;10267515;28;98373;-86
2022/05/18 05:54:45;;;;;;;0.10;0.10;;;15.30;97.30;;;14.07;62.70;100929.78;10238658;28;96565;-87
2022/05/18 05:59:48;;;;;;;0.75;0.25;;;15.40;98.40;;;14.19;61.92;100938.28;10254218;28;96520;-86
2022/05/18 06:04:51;;;;;;;1.83;0.30;;;15.50;97.50;;;14.25;57.86;100947.44;10235717;28;96584;-85
2022/05/18 06:09:54;;;;;;;0.35;0.20;;;15.60;94.30;;;14.20;56.16;100954.13;10267625;28;96651;-89
2022/05/18 06:14:58;;;;;;;0.10;0.10;;;15.60;92.70;;;14.20;56.03;100962.16;10265953;28;96749;-86
2022/05/18 06:20:03;;;;;;;0.25;0.25;;;15.60;91.80;;;14.22;58.31;100963.84;10264841;28;96835;-85
2022/05/18 06:25:06;;;;;;;0.10;0.10;;;15.60;92.60;;;14.33;59.67;100985.66;10252128;28;96867;-85
2022/05/18 06:30:15;;;;;;;0.43;0.20;;;15.70;93.10;;;14.43;58.87;100993.47;10243141;28;96633;-87
2022/05/18 06:35:18;;;;;;;0.10;0.10;;;15.80;92.40;;;14.50;58.00;100999.84;10236450;28;96594;-88
2022/05/18 06:41:21;;;;;;;0.03;0.03;;;15.80;92.00;;;14.54;50.72;101014.53;10250842;28;98151;-89
2022/05/18 06:45:45;;;;;;;0.75;0.75;;;15.90;82.90;;;14.49;50.70;101022.25;10242295;28;96773;-88
2022/05/18 06:50:48;;;;;;;0.22;0.00;;;15.90;80.90;;;14.47;50.24;101026.94;10263562;28;96552;-89
2022/05/18 06:55:51;;;;;;;0.10;0.10;;;15.80;78.20;;;14.47;49.71;101034.13;10250034;28;96479;-87
2022/05/18 07:01:07;;;;;;;0.05;0.00;;;15.80;77.40;;;14.42;48.31;101045.31;10250061;28;96682;-89
2022/05/18 07:06:12;;;;;;;0.32;0.28;;;15.80;74.10;;;14.41;49.19;101049.00;10256426;28;96606;-88
2022/05/18 07:11:15;;;;;;;0.45;0.10;;;15.80;74.10;;;14.50;47.66;101056.00;10258183;28;96542;-88
2022/05/18 07:16:20;;;;;;;0.30;0.22;;;15.90;72.00;;;14.56;45.23;101068.69;10240382;28;96788;-87
2022/05/18 07:21:25;;;;;;;0.20;0.20;;;15.90;68.30;;;14.59;45.64;101075.53;10239728;28;96777;-88
2022/05/18 07:26:29;;;;;;;0.00;0.00;;;15.90;67.80;;;14.63;43.47;101085.72;10258671;28;96657;-88
2022/05/18 07:37:05;;;;;;;0.00;0.00;;;16.00;63.70;;;14.71;45.16;101088.34;10264681;28;97093;-87
2022/05/18 07:42:09;;;;;;;0.30;0.30;;;16.10;65.80;;;14.75;46.39;101098.69;10256086;28;96443;-88
2022/05/18 07:47:12;;;;;;;0.20;0.20;;;16.10;67.00;;;14.85;43.96;101102.00;10238571;28;96728;-89
2022/05/18 07:52:15;;;;;;;0.32;0.30;;;16.20;64.70;;;14.94;44.25;101100.97;10223097;28;96559;-89
2022/05/18 07:57:18;;;;;;;0.15;0.08;;;16.30;64.50;;;14.96;44.67;101107.00;10238981;28;96470;-89
2022/05/18 08:02:21;;;;;;;0.10;0.10;;;16.30;64.40;;;15.14;45.78;101112.91;10237880;28;96534;-88
2022/05/18 08:07:25;;;;;;;0.08;0.08;;;16.40;65.90;;;15.25;45.05;101128.59;10237995;28;98126;-90
2022/05/18 08:17:50;;;;;;;0.00;0.00;;;16.70;63.00;;;15.85;43.14;101145.00;10267711;28;96569;-88
2022/05/18 08:22:54;;;;;;;0.25;0.20;;;16.80;63.10;;;15.86;42.20;101149.31;10221015;28;97252;-88
2022/05/18 08:27:57;;;;;;;0.00;0.00;;;17.00;62.00;;;15.88;43.82;101148.13;10268968;28;96559;-88
2022/05/18 08:33:02;;;;;;;0.10;0.10;;;17.10;63.30;;;15.87;43.00;101154.50;10266164;28;98231;-87
2022/05/18 08:38:06;;;;;;;1.25;0.17;;;17.20;61.90;;;15.89;42.78;101159.69;10238123;28;96620;-88
2022/05/18 08:43:15;;;;;;;0.40;0.20;;;17.20;61.50;;;16.03;43.67;101161.59;10236614;28;96917;-89
2022/05/18 08:48:42;;;;;;;0.98;0.10;;;17.40;62.60;;;16.15;42.46;101165.50;10226474;28;96767;-90
2022/05/18 08:54:29;;;;;;;0.10;0.00;;;17.50;61.30;;;16.23;41.35;101165.44;10236589;28;96793;-89
2022/05/18 08:59:37;;;;;;;0.20;0.10;;;17.60;59.80;;;16.28;40.60;101170.25;10238726;28;96857;-87
2022/05/18 09:04:51;;;;;;;0.00;0.00;;;17.60;58.80;;;16.33;41.00;101171.38;10253289;28;96608;-88
2022/05/18 09:10:31;;;;;;;0.20;0.10;;;17.80;59.20;;;16.42;40.84;101165.94;10255286;28;96495;-89
2022/05/18 09:16:21;;;;;;;0.10;0.10;;;17.90;58.40;;;16.56;42.46;101171.34;10265769;28;96714;-88
2022/05/18 09:22:04;;;;;;;0.00;0.00;;;18.00;59.60;;;16.72;40.64;101170.34;10262698;28;97077;-89
2022/05/18 09:27:19;;;;;;;0.35;0.35;;;18.10;59.20;;;16.77;39.56;101161.75;10237603;28;96465;-88
2022/05/18 09:32:43;;;;;;;0.10;0.10;;;18.20;56.70;;;16.94;40.50;101167.75;10254298;28;96469;-89
2022/05/18 09:38:06;;;;;;;0.17;0.10;;;18.30;57.60;;;17.15;41.06;101162.44;10254238;28;96598;-89
2022/05/18 09:43:40;;;;;;;0.10;0.10;;;18.60;58.60;;;17.36;39.58;101175.94;10254324;28;96490;-89
2022/05/18 09:49:09;;;;;;;0.00;0.00;;;18.70;57.20;;;17.51;39.44;101175.94;10254725;28;96671;-89
2022/05/18 09:54:13;;;;;;;1.17;0.68;;;18.90;57.20;;;17.49;39.66;101161.81;10246896;28;98055;-89
2022/05/18 09:59:25;;;;;;;0.10;0.00;;;18.90;53.00;;;17.49;40.53;101172.56;10266407;28;97607;-89
2022/05/18 10:09:51;;;;;;;0.65;0.22;;;19.00;56.70;;;17.91;39.62;101163.75;10267475;28;96456;-90
2022/05/18 10:15:19;;;;;;;0.08;0.08;;;19.20;56.80;;;18.11;37.70;101157.69;10235427;28;96907;-90
2022/05/18 10:20:34;;;;;;;0.47;0.47;;;19.50;54.90;;;18.25;36.84;101162.19;10234029;28;98082;-90
2022/05/18 10:25:51;;;;;;;0.20;0.20;;;19.60;54.00;;;18.35;36.09;101167.22;10265530;28;96620;-89
2022/05/18 10:30:59;;;;;;;0.08;0.08;;;19.80;52.20;;;18.52;37.50;101157.81;10265313;28;96512;-90
2022/05/18 10:36:14;;;;;;;0.05;0.00;;;19.90;52.30;;;18.68;35.00;101159.41;10265637;28;96575;-90
2022/05/18 10:41:24;;;;;;;0.00;0.00;;;20.10;51.80;;;18.71;35.17;101156.31;10234614;28;96496;-89
2022/05/18 10:46:36;;;;;;;;;;;20.20;50.90;;;18.71;33.05;101143.72;10234849;28;96733;-90
2022/05/18 10:51:43;;;;;;;0.20;0.17;;;20.20;48.20;;;18.61;33.07;101153.97;10250790;28;96554;-89
2022/05/18 10:56:48;;;;;;;0.32;0.05;;;20.10;48.50;;;18.69;32.69;101159.22;10251263;28;96537;-91
2022/05/18 11:02:30;;;;;;;0.00;0.00;;;20.20;48.10;;;18.75;34.58;101146.81;10248942;28;97129;-90
2022/05/18 11:07:33;;;;;;;0.10;0.10;;;20.30;49.90;;;18.99;33.84;101135.56;10235963;28;96961;-90
2022/05/18 11:12:47;;;;;;;0.15;0.15;;;20.40;48.60;;;19.18;34.35;101136.66;10264585;28;96573;-89
2022/05/18 11:18:17;;;;;;;0.30;0.20;;;20.60;48.20;;;19.33;33.08;101128.44;10249593;28;97098;-90
2022/05/18 11:24:08;;;;;;;0.10;0.10;;;20.70;48.00;;;19.47;32.17;101121.22;10210256;28;96489;-89
2022/05/18 11:29:34;;;;;;;0.00;0.00;;;20.80;46.10;;;19.68;33.73;101115.69;10187116;28;96829;-90
2022/05/18 11:35:14;;;;;;;0.47;0.20;;;20.90;47.70;;;19.80;31.84;101115.09;10250518;28;97205;-93
2022/05/18 11:40:46;;;;;;;0.08;0.00;;;21.10;44.60;;;20.03;29.25;101108.25;10249882;28;97418;-89
2022/05/18 11:46:20;;;;;;;0.40;0.10;;;21.30;40.70;;;20.15;29.54;101104.91;10248550;28;97997;-90
2022/05/18 11:52:03;;;;;;;0.10;0.10;;;21.40;43.00;;;20.19;22.46;101106.16;10249769;28;97226;-88
2022/05/18 11:57:13;;;;;;;0.00;0.00;;;21.60;37.80;;;19.97;21.75;101103.69;10256014;28;98218;-88
2022/05/18 12:02:38;;;;;;;;;;;21.50;36.40;;;19.98;23.53;101109.91;10256772;28;96680;-91
2022/05/18 12:08:33;;;;;;;0.10;0.10;;;21.50;36.20;;;20.29;23.08;101101.16;10238035;28;96593;-90
2022/05/18 12:13:58;;;;;;;0.00;0.00;;;21.70;37.00;;;20.48;20.86;101104.91;10255621;28;96580;-89
2022/05/18 12:19:15;;;;;;;0.20;0.10;;;22.00;35.20;;;20.76;21.96;101104.63;10255760;28;96450;-91
2022/05/18 12:24:19;;;;;;;0.03;0.00;;;22.20;35.30;;;21.09;21.67;101097.19;10216648;28;96670;-90
2022/05/18 12:29:26;;;;;;;0.30;0.10;;;22.60;34.70;;;21.45;21.17;101101.19;10255148;28;96491;-90
2022/05/18 12:34:35;;;;;;;0.00;0.00;;;22.90;35.50;;;21.49;20.19;101102.41;10269230;28;96508;-89
2022/05/18 12:39:47;;;;;;;0.00;0.00;;;23.10;34.40;;;21.64;20.51;101111.03;10255575;28;96473;-89
2022/05/18 12:45:12;;;;;;;0.13;0.10;;;23.20;32.10;;;21.67;20.45;101107.09;10254997;28;96562;-90
2022/05/18 12:50:42;;;;;;;0.10;0.10;;;23.40;33.50;;;21.60;19.53;101107.13;10267007;28;97131;-90
2022/05/18 12:56:04;;;;;;;0.00;0.00;;;23.50;32.20;;;21.70;21.51;101108.50;10238255;28;96823;-90
2022/05/18 13:01:11;;;;;;;0.13;0.00;;;23.60;32.50;;;22.08;21.60;101101.16;10267418;28;96747;-91
2022/05/18 13:06:41;;;;;;;0.00;0.00;;;24.00;34.50;;;22.49;23.14;101099.75;10253854;28;97375;-90
2022/05/18 13:11:44;;;;;;;0.00;0.00;;;24.30;34.70;;;22.62;19.86;101088.75;10251332;28;97251;-89
2022/05/18 13:17:11;;;;;;;0.03;0.03;;;24.40;33.50;;;22.43;20.28;101092.50;10254168;28;96595;-89
2022/05/18 13:22:17;;;;;;;0.10;0.10;;;24.30;33.30;;;22.36;21.61;101094.44;10258040;28;96685;-89
2022/05/18 13:27:52;;;;;;;0.17;0.10;;;24.30;34.00;;;22.42;19.91;101088.13;10254483;28;96380;-90
2022/05/18 13:32:55;;;;;;;0.00;0.00;;;24.50;31.50;;;22.64;19.79;101089.34;10251532;28;98239;-89
2022/05/18 13:38:11;;;;;;;0.60;0.10;;;24.60;32.30;;;22.80;20.30;101084.41;10269732;28;96638;-90
2022/05/18 13:43:17;;;;;;;0.00;0.00;;;24.70;32.70;;;23.03;19.88;101083.69;10234989;28;98055;-88
2022/05/18 13:48:23;;;;;;;0.15;0.10;;;24.70;30.10;;;23.09;21.09;101080.91;10211875;28;96415;-90
2022/05/18 13:54:04;;;;;;;0.20;0.00;;;24.50;33.20;;;23.41;22.43;101083.38;10211970;28;98421;-89
2022/05/18 13:59:18;;;;;;;0.00;0.00;;;24.50;34.40;;;23.55;19.34;101079.41;10211553;28;96615;-92
2022/05/18 14:04:38;;;;;;;0.10;0.10;;;24.80;33.60;;;23.27;19.44;101081.91;10210326;28;96596;-90
2022/05/18 14:10:06;;;;;;;0.00;0.00;;;24.70;33.20;;;23.03;18.90;101086.41;10207892;28;96686;-92
2022/05/18 14:15:19;;;;;;;;;;;24.60;32.50;;;23.10;19.30;101071.72;10218058;28;96748;-86
2022/05/18 14:20:39;;;;;;;0.10;0.10;;;24.60;30.40;;;23.18;20.20;101074.09;10239641;28;97736;-87
2022/05/18 14:25:54;;;;;;;0.52;0.15;;;24.70;33.20;;;22.89;18.67;101066.78;10238383;28;96715;-87
2022/05/18 14:31:01;;;;;;;0.10;0.00;;;24.60;31.90;;;22.73;19.02;101068.22;10215154;28;96683;-87
2022/05/18 14:36:39;;;;;;;0.10;0.10;;;24.40;32.00;;;22.16;18.12;101081.09;10194660;28;96580;-87
2022/05/18 14:41:49;;;;;;;0.00;0.00;;;24.10;30.20;;;22.02;18.81;101077.66;10197672;28;96696;-87
2022/05/18 14:46:55;;;;;;;0.20;0.10;;;23.80;31.60;;;22.28;19.23;101079.31;10223824;28;96705;-86
2022/05/18 14:52:05;;;;;;;0.00;0.00;;;23.90;32.00;;;22.55;19.43;101079.88;10207865;28;97309;-87
2022/05/18 14:57:21;;;;;;;0.00;0.00;;;24.10;31.40;;;22.90;19.25;101081.97;10190365;28;96740;-87
2022/05/18 15:02:24;;;;;;;0.00;0.00;;;24.30;32.40;;;22.96;19.88;101081.06;10200853;28;96858;-86
2022/05/18 15:07:40;;;;;;;0.05;0.03;;;24.40;32.70;;;23.19;19.90;101075.75;10211998;28;96745;-86
2022/05/18 15:12:48;;;;;;;0.45;0.00;;;24.70;32.60;;;23.32;19.24;101073.91;10216059;28;97317;-85
2022/05/18 15:18:05;;;;;;;0.00;0.00;;;24.80;29.10;;;23.28;19.22;101075.44;10211251;28;96676;-86
2022/05/18 15:23:33;;;;;;;0.70;0.17;;;24.70;31.80;;;23.48;19.89;101075.97;10240627;28;98309;-85
2022/05/18 15:28:47;;;;;;;1.17;0.10;;;24.80;29.80;;;23.43;18.75;101071.25;10239205;28;96971;-86
2022/05/18 15:34:07;;;;;;;0.55;0.20;;;24.90;32.40;;;23.58;20.59;101072.72;10229648;28;97353;-85
2022/05/18 15:39:12;;;;;;;;;;;25.00;33.20;;;23.42;18.80;101071.47;10211669;28;97763;-83
2022/05/18 15:44:16;;;;;;;0.10;0.00;;;25.10;31.60;;;23.47;19.69;101077.88;10253628;28;96978;-85
2022/05/18 15:49:37;;;;;;;0.00;0.00;;;25.20;32.50;;;23.62;20.44;101076.63;10249555;28;97342;-86
2022/05/18 15:55:14;;;;;;;0.00;0.00;;;25.20;33.00;;;23.66;19.79;101081.34;10233054;28;97026;-86
2022/05/18 16:00:23;;;;;;;0.00;0.00;;;25.40;32.30;;;23.91;19.56;101073.00;10233679;28;98231;-85
2022/05/18 16:05:26;;;;;;;0.00;0.00;;;25.70;31.60;;;24.04;18.61;101077.38;10270765;28;96554;-86
2022/05/18 16:10:29;;;;;;;0.20;0.00;;;25.70;31.40;;;24.20;18.64;101073.13;10269499;28;96725;-86
2022/05/18 16:15:33;;;;;;;0.00;0.00;;;25.60;28.50;;;24.34;19.24;101071.00;10284357;28;96556;-86
2022/05/18 16:20:37;;;;;;;0.00;0.00;;;25.60;31.40;;;24.73;19.01;101075.69;10254086;28;96740;-86
2022/05/18 16:25:44;;;;;;;0.00;0.00;;;25.90;31.00;;;24.82;17.36;101082.41;10254276;28;97843;-86
2022/05/18 16:30:51;;;;;;;0.15;0.15;;;26.00;30.50;;;24.77;17.56;101087.75;10256508;28;96634;-86
2022/05/18 16:36:07;;;;;;;0.20;0.10;;;26.10;31.30;;;24.92;16.94;101072.81;10252183;28;96602;-86
2022/05/18 16:41:34;;;;;;;0.03;0.03;;;26.20;30.20;;;25.00;18.72;101080.56;10251650;28;96651;-86
2022/05/18 16:46:42;;;;;;;0.40;0.10;;;26.20;31.70;;;24.66;17.87;101085.88;10269676;28;96807;-86
2022/05/18 16:51:54;;;;;;;0.00;0.00;;;26.10;31.40;;;24.00;17.30;101100.66;10252681;28;96542;-87
2022/05/18 16:57:00;;;;;;;1.15;0.10;;;25.80;31.10;;;23.46;18.93;101099.81;10273626;28;96865;-86
2022/05/18 17:02:03;;;;;;;0.50;0.20;;;25.30;30.60;;;22.90;21.85;101096.34;10274258;28;96490;-86
2022/05/18 17:07:06;;;;;;;0.17;0.10;;;24.70;31.90;;;22.33;22.05;101101.16;10215703;28;96987;-86
2022/05/18 17:12:10;;;;;;;0.10;0.00;;;24.20;31.70;;;21.56;22.69;101116.72;10277464;28;96543;-86
2022/05/18 17:17:17;;;;;;;0.00;0.00;;;23.50;33.70;;;20.86;28.72;101118.50;10280569;28;96412;-86
2022/05/18 17:22:20;;;;;;;0.00;0.00;;;22.80;37.70;;;20.18;29.47;101115.28;10234930;28;96851;-86
2022/05/18 17:27:31;;;;;;;0.50;0.03;;;22.10;39.70;;;19.63;30.50;101128.13;10251237;28;96788;-86
2022/05/18 17:32:39;;;;;;;;;;;21.50;41.40;;;19.09;30.85;101137.06;10250548;28;96707;-85
2022/05/18 17:37:42;;;;;;;0.10;0.10;;;20.90;41.20;;;18.59;33.27;101133.63;10230967;28;96893;-85
2022/05/18 17:42:45;;;;;;;0.10;0.00;;;20.40;42.20;;;18.10;35.35;101142.59;10252609;28;96759;-85
2022/05/18 17:47:48;;;;;;;0.20;0.10;;;19.90;43.90;;;17.59;35.14;101146.25;10234494;28;96705;-86
2022/05/18 17:52:52;;;;;;;0.35;0.10;;;19.30;44.20;;;17.15;35.54;101145.50;10266498;28;96734;-85
2022/05/18 17:57:55;;;;;;;0.00;0.00;;;18.90;44.90;;;16.74;35.88;101143.34;10236909;28;97621;-85
2022/05/18 18:02:58;;;;;;;0.00;0.00;;;18.40;45.00;;;16.35;36.37;101146.22;10235625;28;96483;-85
2022/05/18 18:08:02;;;;;;;0.00;0.00;;;18.00;45.80;;;16.05;35.84;101152.34;10234582;28;97020;-85
2022/05/18 18:13:05;;;;;;;3.30;0.20;;;17.70;45.90;;;15.79;36.74;101151.91;10233144;28;97118;-85
2022/05/18 18:18:09;;;;;;;0.00;0.00;;;17.40;47.20;;;15.49;35.69;101156.25;10237652;28;97920;-85
2022/05/18 18:23:18;;;;;;;0.00;0.00;;;17.10;46.20;;;15.26;35.66;101153.53;10255317;28;96739;-84
2022/05/18 18:28:21;;;;;;;1.17;0.90;;;16.90;45.90;;;15.12;36.87;101154.28;10194635;28;96465;-85
2022/05/18 18:33:23;;;;;;;0.22;0.22;;;16.70;47.40;;;14.90;38.10;101161.22;10237520;28;96435;-85
2022/05/18 18:38:33;;;;;;;0.38;0.13;;;16.50;48.70;;;14.75;41.14;101169.09;10249119;28;97677;-85
2022/05/18 18:43:36;;;;;;;1.80;0.65;;;16.30;52.50;;;14.60;42.74;101166.31;10226369;28;96586;-85
2022/05/18 18:48:46;;;;;;;1.00;0.45;;;16.10;52.90;;;14.49;43.02;101176.53;10262755;28;96644;-85
2022/05/18 18:59:11;;;;;;;;;;;15.90;53.30;;;14.14;44.08;101183.84;10248106;28;97363;-86
2022/05/18 19:04:14;;;;;;;2.83;0.33;;;15.70;55.10;;;13.98;44.63;101190.06;10247850;28;98473;-85
2022/05/18 19:09:22;;;;;;;2.23;0.57;;;15.50;55.20;;;13.83;44.28;101203.22;10256102;28;96650;-85
2022/05/18 19:14:26;;;;;;;0.10;0.10;;;15.40;54.70;;;13.65;44.15;101202.50;10239938;28;97227;-85
2022/05/18 19:19:29;;;;;;;0.00;0.00;;;15.20;54.70;;;13.47;43.56;101215.16;10270926;28;96628;-85
2022/05/18 19:24:33;;;;;;;0.60;0.33;;;15.00;54.00;;;13.34;43.76;101215.59;10258062;28;96693;-84
2022/05/18 19:29:41;;;;;;;0.03;0.03;;;14.80;54.10;;;13.24;43.80;101220.22;10226332;28;96509;-85
2022/05/18 19:34:44;;;;;;;0.10;0.10;;;14.70;54.10;;;13.14;42.86;101217.66;10268461;28;98381;-84
2022/05/18 19:39:51;;;;;;;0.00;0.00;;;14.60;53.20;;;13.05;43.13;101210.59;10217477;28;97462;-84
2022/05/18 19:44:54;;;;;;;0.00;0.00;;;14.50;53.60;;;12.93;43.26;101214.53;10256835;28;96894;-84
2022/05/18 19:49:57;;;;;;;0.20;0.10;;;14.40;53.90;;;12.83;42.86;101222.63;10270353;28;96619;-84
2022/05/18 19:55:00;;;;;;;0.20;0.20;;;14.30;53.20;;;12.72;43.12;101231.75;10255360;28;96759;-84
2022/05/18 20:00:06;;;;;;;0.10;0.10;;;14.20;53.90;;;12.63;43.08;101226.53;10255619;28;98294;-84
2022/05/18 20:05:09;;;;;;;0.00;0.00;;;14.10;53.20;;;12.57;43.10;101230.66;10257264;28;96993;-84
2022/05/18 20:10:13;;;;;;;0.03;0.03;;;14.00;53.60;;;12.51;42.88;101232.09;10246719;28;96629;-84
2022/05/18 20:15:19;;;;;;;0.10;0.00;;;14.00;53.00;;;12.49;42.56;101241.25;10268204;28;97102;-84
2022/05/18 20:20:27;;;;;;;0.20;0.00;;;13.90;53.00;;;12.43;42.83;101242.72;10271075;28;96580;-84
2022/05/18 20:25:32;;;;;;;0.67;0.23;;;13.90;53.40;;;12.38;43.55;101239.66;10265359;28;96670;-84
2022/05/18 20:30:35;;;;;;;0.10;0.10;;;13.80;53.90;;;12.35;42.40;101239.97;10272123;28;97215;-84
2022/05/18 20:35:38;;;;;;;0.00;0.00;;;13.80;52.50;;;12.34;43.91;101238.28;10262904;28;96950;-84
2022/05/18 20:40:43;;;;;;;0.00;0.00;;;13.80;53.90;;;12.31;45.05;101252.78;10236882;28;96626;-84
2022/05/18 20:45:46;;;;;;;0.00;0.00;;;13.80;54.50;;;12.28;46.19;101254.91;10239626;28;96633;-84
2022/05/18 20:50:49;;;;;;;0.10;0.10;;;13.80;55.40;;;12.17;47.23;101252.47;10282779;28;96644;-84
2022/05/18 20:55:55;;;;;;;0.00;0.00;;;13.80;56.00;;;12.05;47.62;101266.03;10205689;28;96633;-84
2022/05/18 21:00:58;;;;;;;0.20;0.10;;;13.70;56.30;;;11.91;48.03;101263.88;10260613;28;97977;-84
2022/05/18 21:06:01;;;;;;;0.00;0.00;;;13.60;56.80;;;11.78;48.58;101274.84;10257077;28;96800;-84
2022/05/18 21:11:05;;;;;;;0.00;0.00;;;13.40;57.60;;;11.66;49.27;101278.72;10239741;28;96757;-84
2022/05/18 21:16:08;;;;;;;0.20;0.10;;;13.30;58.50;;;11.56;49.97;101279.75;10274484;28;96641;-84
2022/05/18 21:21:11;;;;;;;0.03;0.00;;;13.20;58.40;;;11.45;50.36;101286.94;10263938;28;96639;-84
2022/05/18 21:26:15;;;;;;;0.57;0.20;;;13.10;59.30;;;11.34;51.16;101289.81;10252998;28;96597;-84
2022/05/18 21:31:26;;;;;;;0.10;0.10;;;13.00;60.80;;;11.14;51.22;101296.16;10252772;28;98899;-84
2022/05/18 21:36:29;;;;;;;0.10;0.10;;;12.80;61.40;;;10.90;51.90;101304.63;10251822;28;96757;-84
2022/05/18 21:41:37;;;;;;;0.00;0.00;;;12.50;62.10;;;10.69;52.44;101313.63;10251063;28;96548;-84
2022/05/18 21:46:42;;;;;;;0.17;0.17;;;12.30;63.10;;;10.47;52.70;101321.88;10266937;28;97142;-84